Time;durP1;ratioP1;P1;durP2;ratioP2;P2;SDS_P1;SDS_P2;PMS_P1;PMS_P2;Temp;Humidity;BMP_temperature;BMP_pressure;BME280_temperature;BME280_humidity;BME280_pressure;Samples;Min_cycle;Max_cycle;Signal;HPM_P1;HPM_P2
2022/11/23 00:01:29;;;;;;;0.50;0.50;;;4.50;99.90;5.30;95228.00;;;;5079774;28;20200;-88
2022/11/23 00:04:18;;;;;;;2.40;0.83;;;4.30;99.90;5.50;95224.00;;;;5094993;28;20235;-91
2022/11/23 00:07:07;;;;;;;0.87;0.87;;;4.30;99.90;5.50;95218.00;;;;5074744;28;20224;-88
2022/11/23 00:09:57;;;;;;;0.37;0.37;;;4.30;99.90;5.40;95218.00;;;;5073236;28;20533;-87
2022/11/23 00:12:46;;;;;;;0.70;0.70;;;4.30;99.90;5.40;95224.00;;;;5098443;28;20712;-90
2022/11/23 00:15:36;;;;;;;0.90;0.80;;;4.50;99.90;5.50;95217.00;;;;5092973;28;20199;-89
2022/11/23 00:18:25;;;;;;;0.80;0.70;;;4.10;99.90;5.50;95222.00;;;;5073024;28;20203;-88
2022/11/23 00:21:16;;;;;;;1.13;0.77;;;4.40;99.90;5.60;95226.00;;;;5082123;28;20591;-89
2022/11/23 00:24:06;;;;;;;1.33;0.70;;;2.50;99.90;5.50;95220.00;;;;5094289;27;20211;-88
2022/11/23 00:26:56;;;;;;;0.67;0.67;;;4.40;99.90;5.20;95220.00;;;;5092616;28;20217;-87
2022/11/23 00:29:45;;;;;;;0.77;0.77;;;5.00;99.90;5.40;95220.00;;;;5104099;28;20194;-89
2022/11/23 00:32:34;;;;;;;0.47;0.47;;;4.60;99.90;5.50;95223.00;;;;5097855;28;20227;-89
2022/11/23 00:35:24;;;;;;;1.37;0.43;;;4.60;99.90;5.20;95216.00;;;;5081590;28;20192;-84
2022/11/23 00:38:13;;;;;;;1.07;0.70;;;4.20;99.90;5.50;95220.00;;;;5075370;28;20627;-87
2022/11/23 00:41:05;;;;;;;0.60;0.60;;;3.80;99.90;5.50;95224.00;;;;5077979;27;20203;-89
2022/11/23 00:43:56;;;;;;;0.60;0.60;;;4.40;99.90;5.50;95213.00;;;;5071658;28;20261;-88
2022/11/23 00:46:45;;;;;;;0.47;0.47;;;4.20;99.90;5.60;95230.00;;;;5082264;28;20199;-89
2022/11/23 00:49:33;;;;;;;0.60;0.60;;;4.60;99.90;5.50;95225.00;;;;5088203;28;20222;-89
2022/11/23 00:52:23;;;;;;;0.50;0.50;;;4.30;99.90;5.50;95224.00;;;;5082092;28;20666;-88
2022/11/23 00:55:12;;;;;;;0.50;0.50;;;4.30;99.90;5.70;95233.00;;;;5097291;28;20214;-88
2022/11/23 00:58:01;;;;;;;1.00;0.70;;;4.50;99.90;5.50;95226.00;;;;5100218;28;20252;-89
2022/11/23 01:01:00;;;;;;;0.43;0.43;;;4.50;99.90;5.60;95234.00;;;;5074432;28;20257;-89
2022/11/23 01:03:52;;;;;;;0.67;0.67;;;4.40;99.90;5.50;95213.00;;;;5099938;28;20224;-88
2022/11/23 01:06:41;;;;;;;1.77;0.50;;;4.20;99.90;5.60;95220.00;;;;5075795;28;20207;-88
2022/11/23 01:09:30;;;;;;;0.50;0.50;;;4.20;99.90;5.30;95220.00;;;;5076417;28;20215;-89
2022/11/23 01:12:19;;;;;;;0.60;0.43;;;4.40;99.90;5.10;95220.00;;;;5088671;28;20743;-88
2022/11/23 01:15:09;;;;;;;0.47;0.47;;;4.10;99.90;5.50;95221.00;;;;5108262;28;20196;-87
2022/11/23 01:18:00;;;;;;;0.50;0.50;;;4.20;99.90;5.50;95222.00;;;;5095910;28;20210;-88
2022/11/23 01:20:49;;;;;;;0.40;0.40;;;4.10;99.90;5.40;95229.00;;;;5085732;28;20196;-89
2022/11/23 01:23:38;;;;;;;0.40;0.40;;;4.30;99.90;5.60;95221.00;;;;5098394;28;20215;-88
2022/11/23 01:26:27;;;;;;;0.60;0.60;;;4.30;99.90;5.60;95237.00;;;;5094525;28;20196;-90
2022/11/23 01:29:16;;;;;;;0.57;0.47;;;4.30;99.90;5.60;95221.00;;;;5095911;28;20234;-90
2022/11/23 01:32:05;;;;;;;0.30;0.30;;;4.10;99.90;5.60;95221.00;;;;5084167;28;20254;-90
2022/11/23 01:34:55;;;;;;;0.47;0.47;;;4.30;99.90;5.60;95219.00;;;;5092262;28;20192;-87
2022/11/23 01:37:44;;;;;;;0.80;0.60;;;4.30;99.90;5.60;95219.00;;;;5099698;28;20200;-88
2022/11/23 01:40:41;;;;;;;1.23;0.50;;;4.30;99.90;5.50;95222.00;;;;5108065;28;20199;-89
2022/11/23 01:43:29;;;;;;;0.80;0.80;;;4.50;99.90;5.60;95224.00;;;;5091592;28;20305;-90
2022/11/23 01:46:19;;;;;;;0.40;0.40;;;4.20;99.90;5.50;95231.00;;;;5088405;28;20207;-90
2022/11/23 01:49:08;;;;;;;0.97;0.60;;;4.30;99.90;5.60;95232.00;;;;5106890;28;20215;-88
2022/11/23 01:52:03;;;;;;;0.60;0.60;;;4.70;99.90;5.50;95236.00;;;;5079882;28;20629;-89
2022/11/23 01:54:56;;;;;;;1.27;0.40;;;4.30;99.90;5.60;95237.00;;;;5104816;28;20195;-88
2022/11/23 01:57:45;;;;;;;0.83;0.70;;;5.30;99.90;5.60;95235.00;;;;5088574;28;20207;-89
2022/11/23 02:00:34;;;;;;;0.60;0.50;;;4.30;99.90;5.50;95246.00;;;;5087670;28;20200;-89
2022/11/23 02:03:23;;;;;;;1.37;0.73;;;4.30;99.90;5.60;95245.00;;;;5094832;28;20219;-87
2022/11/23 02:06:18;;;;;;;0.63;0.50;;;4.40;99.90;5.50;95237.00;;;;5086365;28;20196;-88
2022/11/23 02:09:08;;;;;;;0.57;0.57;;;4.40;99.90;5.60;95238.00;;;;5088816;28;20685;-89
2022/11/23 02:11:57;;;;;;;1.03;0.60;;;5.30;99.90;5.50;95235.00;;;;5089083;28;20257;-88
2022/11/23 02:14:46;;;;;;;0.53;0.53;;;4.10;99.90;5.60;95229.00;;;;5096419;28;20772;-87
2022/11/23 02:17:35;;;;;;;0.47;0.47;;;4.40;99.90;5.60;95234.00;;;;5089210;28;20207;-88
2022/11/23 02:20:24;;;;;;;0.40;0.40;;;5.20;99.90;5.60;95240.00;;;;5083296;28;20556;-88
2022/11/23 02:23:29;;;;;;;0.50;0.50;;;4.40;99.90;5.50;95240.00;;;;5091521;28;20220;-89
2022/11/23 02:26:23;;;;;;;0.47;0.47;;;5.90;99.90;5.40;95231.00;;;;5083165;28;20689;-89
2022/11/23 02:29:16;;;;;;;0.40;0.40;;;4.10;99.90;5.50;95241.00;;;;5092971;28;20245;-89
2022/11/23 02:32:05;;;;;;;0.57;0.57;;;4.10;99.90;5.50;95240.00;;;;5088072;28;20202;-88
2022/11/23 02:34:54;;;;;;;0.83;0.50;;;4.10;99.90;5.60;95242.00;;;;5086100;28;20199;-89
2022/11/23 02:37:44;;;;;;;1.00;0.70;;;4.10;99.90;5.60;95245.00;;;;5090479;28;20200;-87
2022/11/23 02:40:36;;;;;;;0.47;0.47;;;4.80;99.90;5.60;95247.00;;;;5085704;28;20706;-89
2022/11/23 02:43:26;;;;;;;0.50;0.50;;;4.20;99.90;5.60;95248.00;;;;5097075;28;20243;-89
2022/11/23 02:46:15;;;;;;;0.50;0.50;;;5.70;99.90;5.60;95241.00;;;;5084309;28;20300;-88
2022/11/23 02:49:04;;;;;;;0.50;0.50;;;6.00;99.90;5.60;95245.00;;;;5082239;28;20216;-87
2022/11/23 02:51:53;;;;;;;0.57;0.57;;;4.20;99.90;5.50;95243.00;;;;5084664;28;20254;-87
2022/11/23 02:54:42;;;;;;;0.50;0.50;;;4.50;99.90;5.60;95247.00;;;;5090673;28;20579;-89
2022/11/23 02:57:31;;;;;;;0.30;0.30;;;4.20;99.90;5.50;95260.00;;;;5091123;28;20195;-88
2022/11/23 03:00:22;;;;;;;0.43;0.40;;;4.10;99.90;5.50;95254.00;;;;5084753;28;20223;-89
2022/11/23 03:03:10;;;;;;;0.50;0.50;;;4.20;99.90;5.60;95251.00;;;;5079560;28;20224;-87
2022/11/23 03:05:59;;;;;;;0.70;0.70;;;4.20;99.90;5.60;95260.00;;;;5092443;28;20229;-87
2022/11/23 03:08:48;;;;;;;0.53;0.53;;;4.20;99.90;5.50;95255.00;;;;5092071;28;20828;-87
2022/11/23 03:11:37;;;;;;;0.50;0.50;;;4.90;99.90;5.20;95248.00;;;;5083563;28;20203;-89
2022/11/23 03:14:26;;;;;;;0.20;0.20;;;4.10;99.90;5.40;95254.00;;;;5074156;28;20219;-88
2022/11/23 03:17:16;;;;;;;0.30;0.30;;;4.00;99.90;5.50;95259.00;;;;5075320;28;20204;-87
2022/11/23 03:20:07;;;;;;;0.57;0.57;;;4.20;99.90;5.60;95252.00;;;;5103555;28;20199;-89
2022/11/23 03:22:56;;;;;;;0.60;0.60;;;4.20;99.90;5.50;95251.00;;;;5098963;28;20234;-89
2022/11/23 03:25:44;;;;;;;0.30;0.30;;;4.20;99.90;5.60;95257.00;;;;5092294;28;20199;-87
2022/11/23 03:28:33;;;;;;;1.03;0.70;;;4.20;99.90;5.50;95258.00;;;;5080337;28;20208;-89
2022/11/23 03:31:22;;;;;;;0.47;0.47;;;4.20;99.90;5.60;95262.00;;;;5090185;28;20192;-88
2022/11/23 03:34:13;;;;;;;0.40;0.40;;;4.10;99.90;5.60;95257.00;;;;5099802;28;20219;-88
2022/11/23 03:37:02;;;;;;;0.30;0.30;;;4.40;99.90;5.50;95246.00;;;;5097056;28;20282;-89
2022/11/23 03:39:52;;;;;;;0.40;0.40;;;4.20;99.90;5.60;95257.00;;;;5073224;28;20199;-87
2022/11/23 03:42:41;;;;;;;0.40;0.40;;;4.40;99.90;5.60;95265.00;;;;5085426;28;20223;-88
2022/11/23 03:45:30;;;;;;;0.30;0.30;;;4.40;99.90;5.60;95257.00;;;;5099883;28;20199;-89
2022/11/23 03:48:19;;;;;;;0.70;0.70;;;4.10;99.90;5.60;95252.00;;;;5098503;28;20196;-88
2022/11/23 03:51:09;;;;;;;0.30;0.30;;;4.20;99.90;5.60;95259.00;;;;5083091;28;20257;-87
2022/11/23 03:53:58;;;;;;;0.40;0.40;;;4.50;99.90;5.60;95251.00;;;;5089739;28;20249;-88
2022/11/23 03:56:47;;;;;;;0.50;0.50;;;4.10;99.90;5.60;95262.00;;;;5085361;28;20203;-88
2022/11/23 03:59:36;;;;;;;0.30;0.30;;;3.10;99.90;5.50;95256.00;;;;5089793;28;20202;-87
2022/11/23 04:02:25;;;;;;;0.40;0.40;;;4.30;99.90;5.50;95259.00;;;;5082196;28;20230;-88
2022/11/23 04:05:14;;;;;;;0.40;0.40;;;4.40;99.90;5.40;95248.00;;;;5077303;28;20210;-87
2022/11/23 04:08:04;;;;;;;0.60;0.60;;;4.10;99.90;5.50;95261.00;;;;5080392;28;20230;-89
2022/11/23 04:10:57;;;;;;;0.50;0.40;;;4.10;99.90;5.50;95265.00;;;;5073344;28;20223;-88
2022/11/23 04:13:46;;;;;;;0.40;0.30;;;4.10;99.90;5.50;95273.00;;;;5102281;28;20222;-88
2022/11/23 04:16:35;;;;;;;0.60;0.40;;;4.10;99.90;5.50;95265.00;;;;5101717;28;20226;-90
2022/11/23 04:19:24;;;;;;;0.40;0.40;;;4.30;99.90;5.40;95266.00;;;;5109396;22;20235;-68
2022/11/23 04:22:13;;;;;;;0.77;0.67;;;4.10;99.90;5.40;95263.00;;;;5083734;28;20223;-68
2022/11/23 04:25:03;;;;;;;0.40;0.40;;;4.30;99.90;5.50;95272.00;;;;5069192;28;20200;-68
2022/11/23 04:27:51;;;;;;;0.53;0.40;;;4.10;99.90;5.40;95266.00;;;;5081281;28;20191;-68
2022/11/23 04:30:40;;;;;;;0.30;0.30;;;4.10;99.90;5.30;95268.00;;;;5074419;28;20270;-68
2022/11/23 04:33:30;;;;;;;4.47;0.60;;;4.00;99.90;5.50;95259.00;;;;5085161;28;20995;-68
2022/11/23 04:36:19;;;;;;;0.50;0.50;;;4.10;99.90;5.50;95262.00;;;;5078527;28;20222;-68
2022/11/23 04:39:07;;;;;;;0.33;0.33;;;4.10;99.90;5.50;95274.00;;;;5068876;28;20200;-68
2022/11/23 04:41:57;;;;;;;0.30;0.30;;;4.10;99.90;5.50;95271.00;;;;5068069;28;20252;-68
2022/11/23 04:44:47;;;;;;;0.60;0.60;;;4.10;99.90;5.50;95266.00;;;;5069242;28;20204;-68
2022/11/23 04:47:35;;;;;;;0.70;0.60;;;4.10;99.90;5.50;95274.00;;;;5068711;28;20230;-68
2022/11/23 04:50:24;;;;;;;0.50;0.50;;;4.10;99.90;5.50;95276.00;;;;5073276;28;20966;-68
2022/11/23 04:53:13;;;;;;;1.80;0.50;;;4.10;99.90;5.60;95276.00;;;;5079717;28;20203;-68
2022/11/23 04:56:01;;;;;;;0.50;0.50;;;4.10;99.90;5.50;95283.00;;;;5084183;28;20214;-68
2022/11/23 04:58:51;;;;;;;0.60;0.60;;;4.10;99.90;5.20;95280.00;;;;5068794;28;20232;-68
2022/11/23 05:01:40;;;;;;;0.57;0.57;;;4.10;99.90;5.60;95291.00;;;;5074275;28;20292;-68
2022/11/23 05:04:29;;;;;;;0.60;0.60;;;4.10;99.90;5.60;95295.00;;;;5077968;28;20218;-68
2022/11/23 05:07:18;;;;;;;0.50;0.50;;;4.10;99.90;5.50;95293.00;;;;5078862;28;20253;-69
2022/11/23 05:10:08;;;;;;;0.40;0.40;;;4.20;99.90;5.40;95293.00;;;;5068825;28;20227;-69
2022/11/23 05:12:56;;;;;;;2.47;0.87;;;4.20;99.90;5.60;95308.00;;;;5089132;28;20196;-69
2022/11/23 05:15:46;;;;;;;0.60;0.60;;;4.20;99.90;5.60;95297.00;;;;5093567;28;20675;-69
2022/11/23 05:18:35;;;;;;;0.50;0.50;;;4.20;99.90;5.60;95298.00;;;;5084419;28;20339;-68
2022/11/23 05:21:24;;;;;;;1.17;0.50;;;4.20;99.90;5.50;95304.00;;;;5085837;28;20365;-69
2022/11/23 05:24:12;;;;;;;0.67;0.67;;;4.20;99.90;5.60;95304.00;;;;5090636;28;20695;-69
2022/11/23 05:27:01;;;;;;;0.50;0.50;;;4.20;99.90;5.60;95295.00;;;;5086528;28;20288;-69
2022/11/23 05:29:50;;;;;;;0.40;0.40;;;4.30;99.90;5.70;95303.00;;;;5081146;28;20220;-69
2022/11/23 05:32:40;;;;;;;0.40;0.40;;;4.20;99.90;5.40;95311.00;;;;5079596;28;20697;-69
2022/11/23 05:35:29;;;;;;;0.57;0.57;;;4.20;99.90;5.40;95313.00;;;;5096182;28;20234;-69
2022/11/23 05:38:18;;;;;;;1.17;1.00;;;4.30;99.90;5.60;95316.00;;;;5078336;28;20258;-69
2022/11/23 05:41:07;;;;;;;1.03;0.73;;;4.20;99.90;5.70;95314.00;;;;5075896;28;20215;-69
2022/11/23 05:43:55;;;;;;;2.00;0.40;;;4.20;99.90;5.40;95311.00;;;;5080693;28;20203;-69
2022/11/23 05:46:44;;;;;;;3.90;0.70;;;4.20;99.90;5.60;95317.00;;;;5081994;28;20196;-68
2022/11/23 05:49:34;;;;;;;0.30;0.30;;;4.20;99.90;5.60;95323.00;;;;5079782;28;20246;-68
2022/11/23 05:52:25;;;;;;;0.47;0.47;;;4.20;99.90;5.60;95323.00;;;;5087670;28;20219;-68
2022/11/23 05:55:15;;;;;;;0.83;0.77;;;4.20;99.90;5.70;95326.00;;;;5095346;28;20675;-68
2022/11/23 05:58:04;;;;;;;0.83;0.67;;;4.20;99.90;5.70;95328.00;;;;5079904;28;20203;-68
2022/11/23 06:00:52;;;;;;;0.70;0.70;;;4.20;99.90;5.60;95330.00;;;;5085529;28;20313;-68
2022/11/23 06:03:41;;;;;;;0.63;0.63;;;4.20;99.90;5.60;95326.00;;;;5082145;28;20238;-68
2022/11/23 06:06:31;;;;;;;0.50;0.50;;;4.20;99.90;5.50;95317.00;;;;5092445;28;20195;-68
2022/11/23 06:09:20;;;;;;;0.50;0.50;;;4.20;99.90;5.50;95317.00;;;;5087913;28;20199;-68
2022/11/23 06:12:08;;;;;;;0.60;0.40;;;4.20;99.90;5.60;95327.00;;;;5078025;28;20219;-68
2022/11/23 06:14:57;;;;;;;1.10;0.60;;;4.20;99.90;5.50;95322.00;;;;5089278;28;20195;-69
2022/11/23 06:17:46;;;;;;;0.53;0.53;;;4.20;99.90;5.40;95323.00;;;;5074827;28;20223;-69
2022/11/23 06:20:35;;;;;;;0.60;0.60;;;4.20;99.90;5.50;95324.00;;;;5083351;28;20277;-69
2022/11/23 06:23:25;;;;;;;0.30;0.30;;;4.20;99.90;5.60;95325.00;;;;5086292;28;20204;-68
2022/11/23 06:26:13;;;;;;;0.87;0.63;;;4.20;99.90;5.70;95328.00;;;;5088222;28;20284;-68
2022/11/23 06:29:02;;;;;;;0.40;0.40;;;4.20;99.90;5.70;95341.00;;;;5087963;28;20621;-69
2022/11/23 06:31:51;;;;;;;1.07;0.50;;;4.30;99.90;5.70;95343.00;;;;5088056;28;20298;-69
2022/11/23 06:34:39;;;;;;;0.57;0.57;;;4.30;99.90;5.70;95341.00;;;;5078955;28;20249;-69
2022/11/23 06:37:28;;;;;;;1.13;0.73;;;4.30;99.90;5.80;95356.00;;;;5078882;28;20207;-69
2022/11/23 06:40:18;;;;;;;0.30;0.30;;;4.30;99.90;5.70;95361.00;;;;5078011;28;20239;-69
2022/11/23 06:43:07;;;;;;;0.30;0.30;;;4.30;99.90;5.80;95358.00;;;;5079711;28;20200;-69
2022/11/23 06:45:56;;;;;;;0.67;0.67;;;4.30;99.90;5.70;95353.00;;;;5079833;28;20807;-68
2022/11/23 06:48:46;;;;;;;0.40;0.40;;;4.30;99.90;5.80;95360.00;;;;5074287;28;20203;-69
2022/11/23 06:51:34;;;;;;;0.77;0.67;;;4.30;99.90;5.90;95360.00;;;;5083984;28;20227;-68
2022/11/23 06:54:23;;;;;;;0.93;0.50;;;4.40;99.90;5.90;95363.00;;;;5083336;28;20207;-68
2022/11/23 06:57:16;;;;;;;0.63;0.63;;;4.40;99.90;6.00;95365.00;;;;5077433;28;20203;-68
2022/11/23 07:00:07;;;;;;;0.60;0.60;;;4.40;99.90;6.00;95369.00;;;;5078132;28;20617;-68
2022/11/23 07:02:56;;;;;;;0.57;0.57;;;4.50;99.90;6.00;95366.00;;;;5082469;28;20207;-68
2022/11/23 07:05:45;;;;;;;0.40;0.40;;;4.50;99.90;6.00;95361.00;;;;5086561;28;20238;-68
2022/11/23 07:08:34;;;;;;;0.50;0.50;;;4.50;99.90;6.10;95375.00;;;;5097395;28;20606;-68
2022/11/23 07:11:23;;;;;;;1.03;0.50;;;4.60;99.90;5.90;95377.00;;;;5087123;28;20229;-68
2022/11/23 07:14:13;;;;;;;0.30;0.30;;;4.60;99.90;6.10;95378.00;;;;5076769;28;20210;-68
2022/11/23 07:17:02;;;;;;;0.53;0.50;;;4.60;99.90;6.20;95380.00;;;;5070841;28;20204;-68
2022/11/23 07:19:50;;;;;;;0.80;0.50;;;4.70;99.90;6.20;95372.00;;;;5082682;28;20292;-68
2022/11/23 07:22:39;;;;;;;0.40;0.40;;;4.70;99.90;6.40;95391.00;;;;5084666;28;20604;-68
2022/11/23 07:25:28;;;;;;;0.50;0.50;;;4.80;99.90;6.40;95382.00;;;;5083027;28;20204;-68
2022/11/23 07:28:17;;;;;;;1.90;0.70;;;4.80;99.90;6.50;95388.00;;;;5076433;28;20217;-68
2022/11/23 07:31:08;;;;;;;0.30;0.30;;;4.60;99.90;6.20;95384.00;;;;5070621;28;20227;-68
2022/11/23 07:33:56;;;;;;;0.43;0.43;;;4.90;99.90;6.40;95390.00;;;;5078034;28;20241;-69
2022/11/23 07:36:45;;;;;;;1.00;0.63;;;4.90;99.90;6.50;95394.00;;;;5077209;28;20281;-69
2022/11/23 07:39:34;;;;;;;0.40;0.40;;;4.90;99.90;6.60;95389.00;;;;5076396;28;20187;-69
2022/11/23 07:42:43;;;;;;;0.30;0.30;;;5.00;99.90;6.60;95396.00;;;;5076993;28;20226;-69
2022/11/23 07:45:33;;;;;;;0.57;0.57;;;5.00;99.90;6.50;95400.00;;;;5076751;28;20219;-68
2022/11/23 07:48:24;;;;;;;0.50;0.50;;;5.00;99.90;6.50;95400.00;;;;5075769;28;20300;-69
2022/11/23 07:51:13;;;;;;;0.40;0.40;;;5.00;99.90;6.50;95395.00;;;;5079187;28;20737;-68
2022/11/23 07:54:02;;;;;;;0.20;0.20;;;5.00;99.90;6.40;95405.00;;;;5078814;28;20268;-69
2022/11/23 07:56:50;;;;;;;0.60;0.43;;;5.00;99.90;6.50;95408.00;;;;5077118;28;20188;-68
2022/11/23 07:59:39;;;;;;;0.50;0.50;;;5.00;99.90;6.50;95404.00;;;;5075781;28;20204;-68
2022/11/23 08:02:28;;;;;;;0.30;0.30;;;5.10;99.90;6.30;95400.00;;;;5076705;28;20706;-68
2022/11/23 08:05:18;;;;;;;0.40;0.40;;;5.10;99.90;6.50;95401.00;;;;5076739;28;20200;-69
2022/11/23 08:08:07;;;;;;;0.93;0.60;;;5.10;99.90;6.50;95407.00;;;;5074863;28;20581;-68
2022/11/23 08:10:56;;;;;;;0.30;0.30;;;5.10;99.90;6.80;95405.00;;;;5069880;28;20258;-68
2022/11/23 08:13:45;;;;;;;0.57;0.50;;;5.10;99.90;6.70;95404.00;;;;5084536;28;20264;-68
2022/11/23 08:16:33;;;;;;;1.30;0.60;;;5.20;99.90;6.50;95404.00;;;;5072845;28;20208;-68
2022/11/23 08:19:22;;;;;;;0.43;0.40;;;5.20;99.90;6.60;95408.00;;;;5081569;28;20208;-67
2022/11/23 08:22:12;;;;;;;0.50;0.50;;;5.20;99.90;6.80;95398.00;;;;5083172;28;20250;-68
2022/11/23 08:25:03;;;;;;;0.40;0.40;;;5.20;99.90;6.80;95401.00;;;;5078218;28;20192;-68
2022/11/23 08:27:55;;;;;;;0.50;0.50;;;5.30;99.90;6.80;95413.00;;;;5075785;28;20215;-68
2022/11/23 08:30:44;;;;;;;0.40;0.40;;;5.30;99.90;6.90;95399.00;;;;5079632;28;20285;-68
2022/11/23 08:33:33;;;;;;;0.30;0.30;;;5.40;99.90;7.00;95411.00;;;;5076697;28;20231;-68
2022/11/23 08:36:22;;;;;;;0.53;0.43;;;5.40;99.90;6.70;95408.00;;;;5078858;28;20273;-68
2022/11/23 08:39:13;;;;;;;0.40;0.40;;;5.40;99.90;7.10;95408.00;;;;5073944;28;20203;-68
2022/11/23 08:42:02;;;;;;;0.33;0.33;;;5.50;99.90;7.00;95401.00;;;;5080665;28;20335;-68
2022/11/23 08:44:50;;;;;;;0.50;0.50;;;5.50;99.90;7.30;95409.00;;;;5073753;28;20205;-68
2022/11/23 08:47:39;;;;;;;0.40;0.40;;;5.70;99.90;6.90;95409.00;;;;5077309;28;20230;-68
2022/11/23 08:50:29;;;;;;;0.40;0.40;;;5.60;99.90;7.30;95403.00;;;;5074566;28;20269;-68
2022/11/23 08:53:18;;;;;;;1.13;0.70;;;5.70;99.90;7.50;95407.00;;;;5076127;28;20211;-68
2022/11/23 08:56:09;;;;;;;0.30;0.30;;;5.70;99.90;7.60;95398.00;;;;5078364;28;20196;-68
2022/11/23 08:58:58;;;;;;;2.03;0.40;;;5.80;99.90;7.70;95415.00;;;;5088380;28;20887;-68
2022/11/23 09:01:47;;;;;;;0.50;0.50;;;5.90;99.90;7.80;95419.00;;;;5086333;28;20225;-68
2022/11/23 09:04:35;;;;;;;0.33;0.33;;;6.00;99.90;7.90;95426.00;;;;5074746;28;20204;-68
2022/11/23 09:07:24;;;;;;;1.03;0.73;;;6.10;99.90;7.60;95423.00;;;;5079053;28;20248;-68
2022/11/23 09:10:13;;;;;;;1.13;0.50;;;6.10;99.90;7.70;95430.00;;;;5077080;28;20207;-69
2022/11/23 09:13:06;;;;;;;0.50;0.50;;;6.10;99.90;7.80;95426.00;;;;5078286;28;20229;-68
2022/11/23 09:15:58;;;;;;;1.13;0.70;;;6.20;99.90;8.00;95435.00;;;;5080890;28;20621;-68
2022/11/23 09:18:48;;;;;;;0.77;0.60;;;6.20;99.90;8.10;95434.00;;;;5071536;28;20227;-68
2022/11/23 09:21:38;;;;;;;0.60;0.60;;;6.30;99.90;8.10;95439.00;;;;5085828;28;20294;-68
2022/11/23 09:24:26;;;;;;;0.40;0.40;;;6.30;99.90;8.10;95434.00;;;;5086801;28;20207;-68
2022/11/23 09:27:15;;;;;;;0.40;0.40;;;6.40;99.90;8.10;95436.00;;;;5084107;28;20572;-68
2022/11/23 09:30:07;;;;;;;0.40;0.40;;;6.40;99.90;8.20;95436.00;;;;5086528;28;20268;-68
2022/11/23 09:32:56;;;;;;;0.30;0.30;;;6.40;99.90;8.10;95439.00;;;;5081984;28;20694;-68
2022/11/23 09:35:45;;;;;;;0.87;0.80;;;6.50;99.90;8.10;95432.00;;;;5077652;28;20200;-68
2022/11/23 09:38:34;;;;;;;0.60;0.60;;;6.50;99.90;8.10;95426.00;;;;5083273;28;20203;-68
2022/11/23 09:42:14;;;;;;;0.83;0.43;;;6.50;99.90;8.20;95431.00;;;;5079778;28;20222;-68
2022/11/23 09:45:22;;;;;;;0.93;0.40;;;6.50;99.90;8.30;95438.00;;;;5075715;28;20203;-68
2022/11/23 09:48:42;;;;;;;0.40;0.30;;;6.50;99.90;8.30;95431.00;;;;5080466;28;20728;-68
2022/11/23 09:51:30;;;;;;;0.50;0.47;;;6.60;99.90;8.20;95434.00;;;;5079233;28;20273;-68
2022/11/23 09:54:28;;;;;;;0.50;0.50;;;6.60;99.90;8.30;95436.00;;;;5083874;28;20243;-68
2022/11/23 09:57:23;;;;;;;0.87;0.47;;;6.60;99.90;8.20;95436.00;;;;5080724;28;20207;-68
2022/11/23 10:00:21;;;;;;;0.37;0.37;;;6.60;99.90;8.30;95433.00;;;;5090785;28;20203;-68
2022/11/23 10:03:15;;;;;;;0.40;0.40;;;6.60;99.90;8.30;95435.00;;;;5086521;28;20214;-68
2022/11/23 10:06:16;;;;;;;1.57;0.60;;;6.70;99.90;8.40;95441.00;;;;5086945;28;20709;-68
2022/11/23 10:09:26;;;;;;;0.30;0.23;;;6.70;99.90;8.50;95433.00;;;;5089483;28;20202;-68
2022/11/23 10:12:42;;;;;;;0.40;0.40;;;6.70;99.90;8.60;95441.00;;;;5093924;28;20231;-68
2022/11/23 10:15:39;;;;;;;0.60;0.60;;;6.80;99.90;8.40;95437.00;;;;5077717;28;20268;-68
2022/11/23 10:18:40;;;;;;;1.00;0.73;;;6.80;99.90;8.40;95428.00;;;;5084590;28;20202;-68
2022/11/23 10:21:41;;;;;;;0.80;0.80;;;6.80;99.90;8.30;95428.00;;;;5077133;28;20226;-68
2022/11/23 10:24:35;;;;;;;0.73;0.73;;;6.70;99.90;8.50;95435.00;;;;5078599;28;20202;-68
2022/11/23 10:27:25;;;;;;;0.50;0.50;;;6.80;99.90;8.60;95439.00;;;;5087486;28;20191;-68
2022/11/23 10:30:16;;;;;;;0.30;0.30;;;6.80;99.90;8.50;95430.00;;;;5084280;28;20283;-68
2022/11/23 10:33:37;;;;;;;0.40;0.40;;;6.80;99.90;8.60;95434.00;;;;5086696;28;20227;-68
2022/11/23 10:36:26;;;;;;;0.50;0.50;;;6.80;99.90;8.60;95429.00;;;;5084249;28;20200;-68
2022/11/23 10:39:22;;;;;;;0.47;0.47;;;6.80;99.90;8.60;95425.00;;;;5081772;28;20207;-68
2022/11/23 10:42:20;;;;;;;0.57;0.57;;;6.90;99.90;8.50;95431.00;;;;5087898;28;20275;-68
2022/11/23 10:45:21;;;;;;;0.87;0.40;;;6.80;99.90;8.60;95437.00;;;;5070922;28;20211;-68
2022/11/23 10:48:11;;;;;;;2.10;1.90;;;6.90;99.90;8.40;95436.00;;;;5069805;28;20623;-68
2022/11/23 10:51:16;;;;;;;2.17;1.83;;;6.90;99.90;8.60;95430.00;;;;5076420;28;20752;-68
2022/11/23 10:54:17;;;;;;;0.80;0.77;;;6.90;99.90;8.60;95434.00;;;;5083221;28;20831;-68
2022/11/23 10:57:27;;;;;;;0.60;0.50;;;6.90;99.90;8.70;95431.00;;;;5071776;28;20203;-68
2022/11/23 11:00:19;;;;;;;0.80;0.80;;;6.90;99.90;8.80;95429.00;;;;5085403;28;20202;-68
2022/11/23 11:03:24;;;;;;;0.60;0.60;;;7.00;99.90;8.70;95417.00;;;;5081462;28;20571;-68
2022/11/23 11:06:23;;;;;;;0.70;0.60;;;7.00;99.90;8.60;95423.00;;;;5076206;28;20706;-68
2022/11/23 11:09:20;;;;;;;0.50;0.50;;;7.00;99.90;8.70;95418.00;;;;5074620;28;20588;-69
2022/11/23 11:12:17;;;;;;;0.40;0.40;;;7.00;99.90;8.80;95418.00;;;;5076663;28;20230;-69
2022/11/23 11:15:17;;;;;;;0.60;0.60;;;7.00;99.90;8.80;95426.00;;;;5084149;28;20192;-69
2022/11/23 11:18:19;;;;;;;0.30;0.23;;;7.00;99.90;8.90;95426.00;;;;5075695;28;20203;-69
2022/11/23 11:21:21;;;;;;;0.40;0.40;;;7.10;99.90;8.80;95420.00;;;;5082837;28;20225;-69
2022/11/23 11:24:18;;;;;;;0.40;0.40;;;7.10;99.90;8.90;95425.00;;;;5070782;28;20879;-69
2022/11/23 11:27:14;;;;;;;0.33;0.33;;;7.10;99.90;9.10;95434.00;;;;5079253;28;20273;-68
2022/11/23 11:30:07;;;;;;;0.63;0.63;;;7.20;99.90;9.10;95424.00;;;;5086355;28;20261;-68
2022/11/23 11:33:06;;;;;;;0.50;0.50;;;7.30;99.90;9.10;95425.00;;;;5077546;28;20768;-69
2022/11/23 11:35:56;;;;;;;0.63;0.63;;;7.30;99.90;9.30;95428.00;;;;5072588;28;20556;-69
2022/11/23 11:38:49;;;;;;;0.50;0.50;;;7.40;99.90;9.40;95434.00;;;;5084987;28;20195;-68
2022/11/23 11:41:52;;;;;;;0.60;0.60;;;7.40;99.90;9.40;95434.00;;;;5081445;28;20214;-69
2022/11/23 11:44:43;;;;;;;1.60;0.60;;;7.50;99.90;9.40;95434.00;;;;5075784;28;20555;-69
2022/11/23 11:47:37;;;;;;;0.60;0.50;;;7.50;99.90;9.30;95436.00;;;;5081613;28;20200;-68
2022/11/23 11:50:32;;;;;;;0.60;0.60;;;7.60;99.90;9.40;95431.00;;;;5077824;28;20219;-69
2022/11/23 11:53:27;;;;;;;1.50;1.40;;;7.60;99.90;9.40;95431.00;;;;5083764;28;20218;-69
2022/11/23 11:56:29;;;;;;;1.57;1.27;;;7.60;99.90;9.50;95433.00;;;;5073664;28;20203;-69
2022/11/23 11:59:24;;;;;;;0.90;0.90;;;7.60;99.90;9.50;95423.00;;;;5080066;28;20275;-68
2022/11/23 12:02:23;;;;;;;1.40;0.93;;;7.70;99.90;9.60;95419.00;;;;5070432;28;20220;-69
2022/11/23 12:05:21;;;;;;;0.47;0.47;;;7.70;99.90;9.40;95419.00;;;;5074280;28;20277;-69
2022/11/23 12:08:15;;;;;;;0.50;0.50;;;7.80;99.90;9.70;95417.00;;;;5075498;28;20204;-68
2022/11/23 12:11:06;;;;;;;0.43;0.43;;;7.80;99.90;9.80;95414.00;;;;5077046;28;20769;-68
2022/11/23 12:14:01;;;;;;;0.60;0.50;;;7.90;99.90;9.90;95421.00;;;;5078192;28;20698;-69
2022/11/23 12:17:00;;;;;;;1.07;0.70;;;7.90;99.90;9.90;95418.00;;;;5074776;28;20249;-69
2022/11/23 12:20:18;;;;;;;0.50;0.43;;;8.00;99.90;9.90;95419.00;;;;5075320;28;20284;-68
2022/11/23 12:23:22;;;;;;;0.40;0.40;;;8.10;99.90;9.70;95417.00;;;;5079010;28;20204;-68
2022/11/23 12:26:23;;;;;;;0.30;0.30;;;8.10;99.90;9.80;95410.00;;;;5080602;28;20191;-69
2022/11/23 12:29:30;;;;;;;0.50;0.50;;;8.10;99.90;9.90;95412.00;;;;5075507;28;20316;-69
2022/11/23 12:32:31;;;;;;;2.43;0.57;;;8.10;99.90;9.90;95411.00;;;;5075559;28;20212;-69
2022/11/23 12:35:56;;;;;;;0.73;0.73;;;8.10;99.90;9.90;95414.00;;;;5080771;28;20693;-68
2022/11/23 12:38:54;;;;;;;1.37;0.90;;;8.10;99.90;9.90;95416.00;;;;5077203;28;20200;-68
2022/11/23 12:41:52;;;;;;;2.37;0.50;;;8.10;99.90;9.80;95420.00;;;;5076101;28;20694;-68
2022/11/23 12:44:59;;;;;;;0.57;0.57;;;8.10;99.90;9.90;95417.00;;;;5072366;28;20200;-68
2022/11/23 12:47:59;;;;;;;2.87;0.80;;;8.10;99.90;10.00;95420.00;;;;5078897;28;20250;-68
2022/11/23 12:51:00;;;;;;;0.77;0.77;;;8.10;99.90;10.10;95417.00;;;;5076296;28;20266;-68
2022/11/23 12:54:02;;;;;;;7.37;0.90;;;8.20;99.90;10.20;95426.00;;;;5082505;28;21153;-68
2022/11/23 12:57:09;;;;;;;0.60;0.60;;;8.20;99.90;10.00;95423.00;;;;5079748;28;20237;-68
2022/11/23 13:00:03;;;;;;;3.33;0.70;;;8.20;99.90;10.00;95414.00;;;;5079741;28;20211;-68
2022/11/23 13:03:52;;;;;;;0.73;0.70;;;8.30;99.90;10.00;95423.00;;;;5091189;28;20251;-68